Time;durP1;ratioP1;P1;durP2;ratioP2;P2;SDS_P1;SDS_P2;PMS_P1;PMS_P2;Temp;Humidity;BMP_temperature;BMP_pressure;BME280_temperature;BME280_humidity;BME280_pressure;Samples;Min_cycle;Max_cycle;Signal;HPM_P1;HPM_P2
2023/01/24 00:01:51;;;;;;;;;;;;;;;3.23;100.00;99385.34;5120947;28;19978;-62
2023/01/24 00:04:17;;;;;;;;;;;;;;;3.29;100.00;99383.81;5124230;28;19923;-63
2023/01/24 00:06:43;;;;;;;;;;;;;;;3.41;100.00;99382.38;5121168;28;19946;-62
2023/01/24 00:09:10;;;;;;;;;;;;;;;3.61;100.00;99385.28;5121530;28;19954;-63
2023/01/24 00:11:36;;;;;;;;;;;;;;;3.70;100.00;99376.28;5121057;28;19925;-63
2023/01/24 00:14:04;;;;;;;;;;;;;;;3.48;100.00;99372.72;5121891;28;19928;-64
2023/01/24 00:16:30;;;;;;;;;;;;;;;3.26;100.00;99369.16;5124376;28;19931;-64
2023/01/24 00:18:56;;;;;;;;;;;;;;;3.30;100.00;99364.34;5123575;28;19966;-63
2023/01/24 00:21:24;;;;;;;;;;;;;;;3.23;100.00;99364.22;5120848;28;19931;-63
2023/01/24 00:23:52;;;;;;;;;;;;;;;3.10;100.00;99363.19;5120765;28;19995;-63
2023/01/24 00:26:19;;;;;;;;;;;;;;;3.03;100.00;99357.81;5123998;28;20010;-63
2023/01/24 00:28:46;;;;;;;;;;;;;;;3.13;100.00;99350.47;5124434;28;19959;-63
2023/01/24 00:31:14;;;;;;;;;;;;;;;3.06;100.00;99346.09;5121591;28;19975;-63
2023/01/24 00:33:40;;;;;;;;;;;;;;;3.16;100.00;99344.84;5121092;28;20026;-63
2023/01/24 00:36:07;;;;;;;;;;;;;;;3.00;100.00;99341.56;5118786;28;19960;-63
2023/01/24 00:38:33;;;;;;;;;;;;;;;3.45;100.00;99351.97;5124100;28;19983;-63
2023/01/24 00:41:00;;;;;;;;;;;;;;;3.28;100.00;99360.25;5122995;28;19924;-63
2023/01/24 00:43:27;;;;;;;;;;;;;;;3.30;100.00;99352.94;5120545;28;19924;-63
2023/01/24 00:45:53;;;;;;;;;;;;;;;3.14;100.00;99354.75;5120373;28;19920;-63
2023/01/24 00:48:21;;;;;;;;;;;;;;;3.08;100.00;99354.66;5112111;28;19935;-63
2023/01/24 00:50:48;;;;;;;;;;;;;;;3.22;100.00;99367.03;5120596;28;19928;-63
2023/01/24 00:53:14;;;;;;;;;;;;;;;3.31;100.00;99349.31;5123108;28;19935;-63
2023/01/24 00:55:41;;;;;;;;;;;;;;;3.36;100.00;99376.00;5123748;28;19927;-64
2023/01/24 00:58:08;;;;;;;;;;;;;;;3.61;100.00;99380.00;5121767;28;19923;-63
2023/01/24 01:00:36;;;;;;;;;;;;;;;3.54;100.00;99373.81;5120035;28;19920;-63
2023/01/24 01:03:03;;;;;;;;;;;;;;;3.54;100.00;99371.16;5121167;28;19925;-63
2023/01/24 01:05:31;;;;;;;;;;;;;;;3.28;100.00;99382.16;5118744;28;19924;-63
2023/01/24 01:07:57;;;;;;;;;;;;;;;3.39;100.00;99383.56;5120426;28;20332;-63
2023/01/24 01:10:24;;;;;;;;;;;;;;;3.42;100.00;99380.53;5123465;28;19945;-62
2023/01/24 01:12:50;;;;;;;;;;;;;;;3.43;100.00;99383.03;5123215;28;19935;-62
2023/01/24 01:15:16;;;;;;;;;;;;;;;3.51;100.00;99393.50;5119996;28;19924;-62
2023/01/24 01:17:43;;;;;;;;;;;;;;;3.43;100.00;99390.94;5119875;28;19966;-62
2023/01/24 01:20:10;;;;;;;;;;;;;;;3.63;100.00;99393.84;5120776;28;20473;-63
2023/01/24 01:22:38;;;;;;;;;;;;;;;3.32;100.00;99385.25;5123100;28;19927;-63
2023/01/24 01:25:04;;;;;;;;;;;;;;;3.67;100.00;99393.31;5121733;28;19924;-63
2023/01/24 01:27:31;;;;;;;;;;;;;;;3.80;100.00;99392.66;5119597;28;19924;-63
2023/01/24 01:29:57;;;;;;;;;;;;;;;3.83;100.00;99386.19;5119665;28;20437;-63
2023/01/24 01:32:23;;;;;;;;;;;;;;;3.54;100.00;99400.22;5123337;28;19967;-63
2023/01/24 01:34:50;;;;;;;;;;;;;;;3.36;100.00;99394.47;5120078;28;19955;-63
2023/01/24 01:37:16;;;;;;;;;;;;;;;3.25;100.00;99393.09;5119494;28;20645;-63
2023/01/24 01:39:44;;;;;;;;;;;;;;;3.23;100.00;99385.34;5119593;28;19931;-63
2023/01/24 01:42:10;;;;;;;;;;;;;;;3.27;100.00;99388.47;5121707;28;19928;-63
2023/01/24 01:44:40;;;;;;;;;;;;;;;3.25;100.00;99396.53;5123059;28;19962;-63
2023/01/24 01:47:15;;;;;;;;;;;;;;;3.25;100.00;99391.25;5121047;28;19924;-63
2023/01/24 01:49:44;;;;;;;;;;;;;;;3.40;100.00;99393.13;5119266;28;19970;-63
2023/01/24 01:52:10;;;;;;;;;;;;;;;3.39;100.00;99394.94;5103140;28;20069;-63
2023/01/24 01:54:38;;;;;;;;;;;;;;;3.39;100.00;99394.13;5122689;28;19923;-63
2023/01/24 01:57:09;;;;;;;;;;;;;;;3.39;100.00;99394.94;5120968;28;19919;-63
2023/01/24 01:59:36;;;;;;;;;;;;;;;3.38;100.00;99395.09;5119095;28;19963;-63
2023/01/24 02:02:04;;;;;;;;;;;;;;;3.36;100.00;99391.84;5120080;28;19932;-63
2023/01/24 02:04:34;;;;;;;;;;;;;;;3.29;100.00;99394.38;5121962;28;19931;-63
2023/01/24 02:07:02;;;;;;;;;;;;;;;3.49;100.00;99394.69;5118893;28;20522;-63
2023/01/24 02:09:29;;;;;;;;;;;;;;;3.71;100.00;99399.84;5100499;28;20011;-63
2023/01/24 02:11:57;;;;;;;;;;;;;;;3.73;100.00;99402.31;5118744;28;19970;-62
2023/01/24 02:17:10;;;;;;;;;;;;;;;3.41;100.00;99403.50;5119805;28;20009;-63
2023/01/24 02:19:43;;;;;;;;;;;;;;;3.39;100.00;99400.22;5118529;28;19970;-64
2023/01/24 02:22:14;;;;;;;;;;;;;;;3.25;100.00;99407.09;5120925;28;19987;-63
2023/01/24 02:24:44;;;;;;;;;;;;;;;3.62;100.00;99408.06;5122123;28;19959;-63
2023/01/24 02:27:11;;;;;;;;;;;;;;;3.28;100.00;99405.94;5119704;28;19923;-63
2023/01/24 02:29:38;;;;;;;;;;;;;;;3.19;100.00;99396.44;5100501;28;19946;-63
2023/01/24 02:32:07;;;;;;;;;;;;;;;3.26;100.00;99397.38;5119569;28;19920;-63
2023/01/24 02:34:33;;;;;;;;;;;;;;;3.49;100.00;99394.69;5121439;28;19924;-63
2023/01/24 02:37:01;;;;;;;;;;;;;;;3.30;100.00;99398.66;5118536;28;19951;-63
2023/01/24 02:39:30;;;;;;;;;;;;;;;3.21;100.00;99391.81;5118829;28;19928;-63
2023/01/24 02:42:00;;;;;;;;;;;;;;;3.21;100.00;99378.63;5119018;28;19946;-63
2023/01/24 02:44:29;;;;;;;;;;;;;;;3.30;100.00;99384.63;5122221;28;19920;-63
2023/01/24 02:46:56;;;;;;;;;;;;;;;3.19;100.00;99383.25;5121939;28;19983;-63
2023/01/24 02:49:22;;;;;;;;;;;;;;;3.07;100.00;99374.94;5118570;28;19982;-62
2023/01/24 02:54:32;;;;;;;;;;;;;;;3.22;100.00;99375.78;5112088;28;19938;-62
2023/01/24 02:59:44;;;;;;;;;;;;;;;3.15;100.00;99374.88;5138233;27;19923;-62
2023/01/24 03:02:10;;;;;;;;;;;;;;;3.01;100.00;99364.28;5119711;28;19924;-62
2023/01/24 03:04:37;;;;;;;;;;;;;;;2.96;100.00;99367.47;5118370;28;19925;-62
2023/01/24 03:07:03;;;;;;;;;;;;;;;3.16;100.00;99379.16;5118402;28;19959;-62
2023/01/24 03:09:34;;;;;;;;;;;;;;;3.61;100.00;99395.88;5118416;28;19934;-62
2023/01/24 03:36:38;;;;;;;;;;;;;;;3.05;100.00;99402.53;5115662;28;19931;-64
2023/01/24 03:41:49;;;;;;;;;;;;;;;3.32;100.00;99416.94;5117923;28;19920;-62
2023/01/24 03:44:15;;;;;;;;;;;;;;;3.17;100.00;99412.47;5121958;28;19939;-63
2023/01/24 03:46:43;;;;;;;;;;;;;;;3.31;100.00;99407.41;5125160;28;19974;-63
2023/01/24 03:49:09;;;;;;;;;;;;;;;3.09;100.00;99412.56;5122738;28;19983;-63
2023/01/24 03:54:20;;;;;;;;;;;;;;;3.22;100.00;99404.00;5112865;28;19924;-63
2023/01/24 03:56:47;;;;;;;;;;;;;;;3.07;100.00;99400.50;5103078;28;19924;-62
2023/01/24 03:59:13;;;;;;;;;;;;;;;3.17;100.00;99395.81;5123941;28;19959;-63
2023/01/24 04:01:40;;;;;;;;;;;;;;;2.95;100.00;99392.22;5124929;28;20022;-63
2023/01/24 04:04:08;;;;;;;;;;;;;;;3.09;100.00;99407.28;5122933;28;19923;-63
2023/01/24 04:06:34;;;;;;;;;;;;;;;3.36;100.00;99399.75;5118147;28;20005;-63
2023/01/24 04:09:00;;;;;;;;;;;;;;;3.25;100.00;99412.38;5123609;28;19977;-63
2023/01/24 04:11:27;;;;;;;;;;;;;;;3.50;100.00;99401.56;5121028;28;20022;-63
2023/01/24 04:13:53;;;;;;;;;;;;;;;3.31;100.00;99407.41;5121060;28;19962;-63
2023/01/24 04:16:19;;;;;;;;;;;;;;;3.05;100.00;99399.88;5124595;28;19987;-63
2023/01/24 04:18:46;;;;;;;;;;;;;;;2.91;100.00;99405.97;5124430;28;19923;-63
2023/01/24 04:21:13;;;;;;;;;;;;;;;2.98;100.00;99405.06;5121969;28;19927;-63
2023/01/24 04:23:40;;;;;;;;;;;;;;;3.00;100.00;99405.69;5120859;28;19931;-63
2023/01/24 04:26:06;;;;;;;;;;;;;;;2.92;100.00;99400.50;5122374;28;20015;-63
2023/01/24 04:28:33;;;;;;;;;;;;;;;2.78;100.00;99421.56;5124371;28;19955;-63
2023/01/24 04:31:00;;;;;;;;;;;;;;;2.86;100.00;99409.13;5123224;28;19920;-63
2023/01/24 04:33:27;;;;;;;;;;;;;;;3.01;100.00;99395.94;5120755;28;19952;-63
2023/01/24 04:35:56;;;;;;;;;;;;;;;2.95;100.00;99401.94;5117074;28;19920;-63
2023/01/24 04:38:24;;;;;;;;;;;;;;;3.15;100.00;99403.94;5112510;28;19924;-63
2023/01/24 04:40:57;;;;;;;;;;;;;;;2.95;100.00;99397.50;5120420;28;19977;-63
2023/01/24 04:43:23;;;;;;;;;;;;;;;3.07;100.00;99403.16;5112634;28;19988;-63
2023/01/24 04:45:49;;;;;;;;;;;;;;;3.03;100.00;99399.25;5120274;28;19920;-63
2023/01/24 04:48:16;;;;;;;;;;;;;;;2.78;100.00;99403.09;5123367;28;19931;-63
2023/01/24 04:50:42;;;;;;;;;;;;;;;3.00;100.00;99407.53;5123658;28;19934;-63
2023/01/24 04:53:08;;;;;;;;;;;;;;;2.97;100.00;99406.03;5121673;28;19983;-63
2023/01/24 04:55:37;;;;;;;;;;;;;;;2.97;100.00;99400.75;5120148;28;20030;-63
2023/01/24 04:58:03;;;;;;;;;;;;;;;3.19;100.00;99401.72;5103263;28;19924;-63
2023/01/24 05:00:29;;;;;;;;;;;;;;;2.84;100.00;99418.22;5123814;28;19927;-63
2023/01/24 05:02:56;;;;;;;;;;;;;;;2.75;100.00;99401.63;5123675;28;19983;-63
2023/01/24 05:05:22;;;;;;;;;;;;;;;3.02;100.00;99403.72;5116462;28;19965;-63
2023/01/24 05:07:48;;;;;;;;;;;;;;;2.95;100.00;99407.22;5120000;28;20034;-63
2023/01/24 05:10:15;;;;;;;;;;;;;;;2.95;100.00;99413.31;5122614;28;19952;-63
2023/01/24 05:12:43;;;;;;;;;;;;;;;3.17;100.00;99409.84;5105230;28;19949;-63
2023/01/24 05:15:10;;;;;;;;;;;;;;;3.11;100.00;99407.91;5121181;28;19966;-63
2023/01/24 05:17:36;;;;;;;;;;;;;;;3.39;100.00;99409.97;5119744;28;19923;-63
2023/01/24 05:20:02;;;;;;;;;;;;;;;3.43;100.00;99416.53;5120556;28;20327;-63
2023/01/24 05:22:29;;;;;;;;;;;;;;;3.30;100.00;99416.31;5123102;28;19942;-63
2023/01/24 05:24:55;;;;;;;;;;;;;;;3.26;100.00;99419.31;5123238;28;19959;-63
2023/01/24 05:27:22;;;;;;;;;;;;;;;3.24;100.00;99418.69;5119512;28;19928;-63
2023/01/24 05:29:49;;;;;;;;;;;;;;;3.22;100.00;99420.66;5119641;28;19962;-62
2023/01/24 05:32:16;;;;;;;;;;;;;;;3.17;100.00;99411.66;5122540;28;19923;-63
2023/01/24 05:34:42;;;;;;;;;;;;;;;3.11;100.00;99413.19;5121119;28;19974;-63
2023/01/24 05:37:08;;;;;;;;;;;;;;;3.14;100.00;99418.13;5119092;28;20011;-63
2023/01/24 05:39:35;;;;;;;;;;;;;;;3.15;100.00;99418.94;5119284;28;19920;-63
2023/01/24 05:42:01;;;;;;;;;;;;;;;2.96;100.00;99422.91;5119935;28;20422;-63
2023/01/24 05:44:28;;;;;;;;;;;;;;;2.90;100.00;99426.25;5122745;28;19959;-63
2023/01/24 05:46:55;;;;;;;;;;;;;;;3.05;100.00;99429.75;5122584;28;19924;-63
2023/01/24 05:49:22;;;;;;;;;;;;;;;3.09;100.00;99440.78;5110692;28;19987;-63
2023/01/24 05:51:48;;;;;;;;;;;;;;;3.00;100.00;99431.28;5118854;28;19935;-64
2023/01/24 05:54:14;;;;;;;;;;;;;;;2.92;100.00;99432.16;5121426;28;19983;-63
2023/01/24 05:56:41;;;;;;;;;;;;;;;2.77;100.00;99436.56;5122402;28;19957;-63
2023/01/24 05:59:07;;;;;;;;;;;;;;;3.01;100.00;99446.09;5120431;28;19951;-63
2023/01/24 06:01:33;;;;;;;;;;;;;;;2.95;100.00;99434.44;5118909;28;19923;-63
2023/01/24 06:04:01;;;;;;;;;;;;;;;3.09;100.00;99438.97;5119199;28;19987;-63
2023/01/24 06:06:27;;;;;;;;;;;;;;;3.05;100.00;99437.66;5118058;28;19931;-63
2023/01/24 06:08:54;;;;;;;;;;;;;;;3.03;100.00;99444.91;5122203;28;19979;-63
2023/01/24 06:11:21;;;;;;;;;;;;;;;3.03;100.00;99444.13;5110084;28;19934;-63
2023/01/24 06:13:48;;;;;;;;;;;;;;;2.96;100.00;99444.00;5119228;28;20069;-62
2023/01/24 06:16:16;;;;;;;;;;;;;;;2.94;100.00;99448.63;5121532;28;19967;-63
2023/01/24 06:18:43;;;;;;;;;;;;;;;3.00;100.00;99447.13;5122312;28;19931;-63
2023/01/24 06:21:16;;;;;;;;;;;;;;;2.96;100.00;99451.94;5120288;28;19995;-62
2023/01/24 06:23:43;;;;;;;;;;;;;;;2.88;100.00;99449.31;5118823;28;19928;-61
2023/01/24 06:26:09;;;;;;;;;;;;;;;3.16;100.00;99460.97;5121044;28;19959;-63
2023/01/24 06:28:36;;;;;;;;;;;;;;;3.18;100.00;99456.38;5122490;28;19946;-63
2023/01/24 06:31:10;;;;;;;;;;;;;;;3.23;100.00;99461.91;5121203;28;19990;-62
2023/01/24 06:33:41;;;;;;;;;;;;;;;3.10;100.00;99469.63;5118744;28;19987;-62
2023/01/24 06:36:28;;;;;;;;;;;;;;;3.16;100.00;99468.91;5116403;28;19995;-62
2023/01/24 06:38:55;;;;;;;;;;;;;;;3.31;100.00;99474.25;5122472;28;19970;-63
2023/01/24 06:41:21;;;;;;;;;;;;;;;3.38;100.00;99476.97;5110603;28;19991;-63
2023/01/24 06:43:48;;;;;;;;;;;;;;;3.20;100.00;99486.03;5118659;28;19924;-63
2023/01/24 06:46:14;;;;;;;;;;;;;;;3.33;100.00;99476.69;5121134;28;19935;-63
2023/01/24 06:48:42;;;;;;;;;;;;;;;3.30;100.00;99484.97;5122128;28;19924;-63
2023/01/24 06:51:10;;;;;;;;;;;;;;;3.35;100.00;99486.06;5119896;28;19920;-63
2023/01/24 06:53:38;;;;;;;;;;;;;;;3.31;100.00;99490.09;5118704;28;19981;-63
2023/01/24 06:56:05;;;;;;;;;;;;;;;3.30;100.00;99493.72;5120052;28;19943;-63
2023/01/24 06:58:31;;;;;;;;;;;;;;;3.26;100.00;99502.97;5122094;28;19920;-63
2023/01/24 07:00:58;;;;;;;;;;;;;;;3.26;100.00;99495.06;5103233;28;19970;-63
2023/01/24 07:03:24;;;;;;;;;;;;;;;3.35;100.00;99501.09;5118452;28;19925;-63
2023/01/24 07:05:50;;;;;;;;;;;;;;;3.43;100.00;99514.25;5114860;28;19924;-63
2023/01/24 07:08:20;;;;;;;;;;;;;;;3.20;100.00;99515.09;5121467;28;19950;-63
2023/01/24 07:10:48;;;;;;;;;;;;;;;3.38;100.00;99520.03;5121612;28;19946;-63
2023/01/24 07:13:15;;;;;;;;;;;;;;;3.39;100.00;99516.41;5118630;28;19931;-63
2023/01/24 07:15:42;;;;;;;;;;;;;;;3.47;100.00;99512.88;5118176;28;19958;-63
2023/01/24 07:18:09;;;;;;;;;;;;;;;3.53;100.00;99523.53;5119751;28;19975;-62
2023/01/24 07:20:35;;;;;;;;;;;;;;;3.45;100.00;99522.81;5124827;28;19963;-63
2023/01/24 07:23:02;;;;;;;;;;;;;;;3.26;100.00;99522.28;5124253;28;19955;-63
2023/01/24 07:25:29;;;;;;;;;;;;;;;3.41;100.00;99526.78;5121683;28;19924;-63
2023/01/24 07:27:57;;;;;;;;;;;;;;;3.37;100.00;99529.00;5121827;28;19953;-63
2023/01/24 07:30:23;;;;;;;;;;;;;;;3.50;100.00;99533.63;5125351;28;20714;-63
2023/01/24 07:32:50;;;;;;;;;;;;;;;3.41;100.00;99535.53;5125376;28;19945;-63
2023/01/24 07:35:16;;;;;;;;;;;;;;;3.31;100.00;99536.78;5118253;28;19988;-62
2023/01/24 07:37:42;;;;;;;;;;;;;;;3.23;100.00;99543.78;5103156;28;19984;-62
2023/01/24 07:40:09;;;;;;;;;;;;;;;3.45;100.00;99541.28;5122840;28;19924;-62
2023/01/24 07:42:36;;;;;;;;;;;;;;;3.43;100.00;99543.28;5124731;28;19958;-62
2023/01/24 07:45:04;;;;;;;;;;;;;;;3.48;100.00;99547.03;5123425;28;19958;-63
2023/01/24 07:47:31;;;;;;;;;;;;;;;3.65;100.00;99550.38;5120993;28;20689;-62
2023/01/24 07:49:58;;;;;;;;;;;;;;;3.55;100.00;99545.34;5121060;28;19920;-63
2023/01/24 07:52:24;;;;;;;;;;;;;;;3.50;100.00;99544.22;5124553;28;19938;-63
2023/01/24 07:54:51;;;;;;;;;;;;;;;3.79;100.00;99546.94;5124457;28;19951;-63
2023/01/24 07:57:17;;;;;;;;;;;;;;;3.86;100.00;99549.69;5121142;28;19928;-63
2023/01/24 07:59:44;;;;;;;;;;;;;;;3.78;100.00;99553.22;5120823;28;19962;-63
2023/01/24 08:02:12;;;;;;;;;;;;;;;3.70;100.00;99556.75;5104544;28;19996;-63
2023/01/24 08:04:39;;;;;;;;;;;;;;;3.56;100.00;99548.81;5123136;28;19924;-63
2023/01/24 08:07:17;;;;;;;;;;;;;;;3.54;100.00;99545.50;5120681;28;19983;-62
2023/01/24 08:09:43;;;;;;;;;;;;;;;3.63;100.00;99547.91;5120791;28;19927;-62
2023/01/24 08:12:10;;;;;;;;;;;;;;;3.62;100.00;99564.75;5122546;28;19931;-62
2023/01/24 08:14:36;;;;;;;;;;;;;;;3.56;100.00;99565.44;5124012;28;19951;-63
2023/01/24 08:17:02;;;;;;;;;;;;;;;3.55;100.00;99553.25;5122541;28;19934;-62
2023/01/24 08:19:31;;;;;;;;;;;;;;;3.52;100.00;99558.06;5120332;28;19920;-63
2023/01/24 08:21:57;;;;;;;;;;;;;;;3.46;100.00;99556.97;5120443;28;19924;-63
2023/01/24 08:24:24;;;;;;;;;;;;;;;3.36;100.00;99552.91;5123690;28;19924;-63
2023/01/24 08:26:51;;;;;;;;;;;;;;;3.51;100.00;99562.53;5123976;28;19924;-63
2023/01/24 08:29:17;;;;;;;;;;;;;;;3.79;100.00;99576.00;5120432;28;19953;-62
2023/01/24 08:31:44;;;;;;;;;;;;;;;3.94;100.00;99573.38;5120030;28;20624;-63
2023/01/24 08:34:10;;;;;;;;;;;;;;;3.80;100.00;99581.13;5122261;28;19987;-63
2023/01/24 08:36:38;;;;;;;;;;;;;;;3.77;100.00;99583.28;5101808;28;19994;-63
2023/01/24 08:39:04;;;;;;;;;;;;;;;3.78;100.00;99582.28;5122103;28;19997;-63
2023/01/24 08:41:31;;;;;;;;;;;;;;;3.73;100.00;99576.72;5101687;28;19924;-63
2023/01/24 08:43:57;;;;;;;;;;;;;;;3.69;100.00;99586.00;5120001;28;20006;-63
2023/01/24 08:46:23;;;;;;;;;;;;;;;3.73;100.00;99587.28;5123273;28;19971;-63
2023/01/24 08:48:50;;;;;;;;;;;;;;;3.76;100.00;99589.56;5123368;28;19959;-63
2023/01/24 08:51:16;;;;;;;;;;;;;;;3.73;100.00;99593.41;5120183;28;19988;-63
2023/01/24 08:53:44;;;;;;;;;;;;;;;3.78;100.00;99593.69;5119779;28;20390;-63
2023/01/24 08:56:10;;;;;;;;;;;;;;;4.00;100.00;99594.63;5121830;28;19948;-63
2023/01/24 08:58:36;;;;;;;;;;;;;;;3.95;100.00;99601.47;5123184;28;19951;-63
2023/01/24 09:01:06;;;;;;;;;;;;;;;3.84;100.00;99597.41;5122251;28;20488;-63
2023/01/24 09:03:32;;;;;;;;;;;;;;;3.99;100.00;99603.56;5119518;28;19959;-63
2023/01/24 09:05:59;;;;;;;;;;;;;;;4.15;100.00;99602.56;5116281;28;19920;-63
2023/01/24 09:08:25;;;;;;;;;;;;;;;4.08;100.00;99615.72;5123025;28;19930;-63
2023/01/24 09:10:53;;;;;;;;;;;;;;;4.32;100.00;99615.47;5122956;28;20010;-62
2023/01/24 09:13:20;;;;;;;;;;;;;;;4.19;100.00;99614.44;5119449;28;19983;-62
2023/01/24 09:15:46;;;;;;;;;;;;;;;4.19;100.00;99604.69;5101280;28;20580;-62
2023/01/24 09:18:12;;;;;;;;;;;;;;;4.28;100.00;99611.53;5121795;28;19967;-63
2023/01/24 09:20:39;;;;;;;;;;;;;;;4.30;100.00;99612.16;5122803;28;20037;-63
2023/01/24 09:23:08;;;;;;;;;;;;;;;4.25;100.00;99608.44;5121365;28;19951;-62
2023/01/24 09:25:34;;;;;;;;;;;;;;;4.33;100.00;99613.66;5101654;28;20482;-63
2023/01/24 09:28:02;;;;;;;;;;;;;;;4.24;100.00;99612.09;5119913;28;19924;-62
2023/01/24 09:30:28;;;;;;;;;;;;;;;4.24;100.00;99615.53;5122406;28;20008;-62
2023/01/24 09:32:54;;;;;;;;;;;;;;;4.19;100.00;99609.97;5122589;28;19926;-63
2023/01/24 09:35:21;;;;;;;;;;;;;;;4.08;100.00;99613.09;5106800;28;19947;-63
2023/01/24 09:37:47;;;;;;;;;;;;;;;3.97;100.00;99605.56;5119155;28;19943;-63
2023/01/24 09:40:19;;;;;;;;;;;;;;;3.82;100.00;99602.06;5121578;28;19963;-63
2023/01/24 09:42:52;;;;;;;;;;;;;;;3.86;100.00;99600.72;5121856;28;20358;-63
2023/01/24 09:45:23;;;;;;;;;;;;;;;3.93;100.00;99598.19;5119115;28;20786;-62
2023/01/24 09:47:51;;;;;;;;;;;;;;;3.95;100.00;99609.41;5119152;28;19985;-63
2023/01/24 09:50:19;;;;;;;;;;;;;;;3.95;100.00;99599.66;5122302;28;19924;-63
2023/01/24 09:52:48;;;;;;;;;;;;;;;3.98;100.00;99601.94;5122656;28;19970;-63
2023/01/24 09:55:16;;;;;;;;;;;;;;;4.02;100.00;99599.75;5119919;28;19955;-63
2023/01/24 09:57:50;;;;;;;;;;;;;;;4.12;100.00;99601.13;5119093;28;19924;-62
2023/01/24 10:00:18;;;;;;;;;;;;;;;4.12;100.00;99598.47;5121688;28;19932;-62
2023/01/24 10:02:46;;;;;;;;;;;;;;;4.14;100.00;99591.22;5122610;28;19975;-62
2023/01/24 10:05:13;;;;;;;;;;;;;;;4.19;100.00;99591.47;5115982;28;19927;-62
2023/01/24 10:07:54;;;;;;;;;;;;;;;4.06;100.00;99588.63;5118755;28;19920;-62
2023/01/24 10:10:27;;;;;;;;;;;;;;;4.11;100.00;99585.44;5108376;28;19931;-61
2023/01/24 10:12:58;;;;;;;;;;;;;;;4.02;100.00;99582.06;5118327;28;19966;-62
2023/01/24 10:15:35;;;;;;;;;;;;;;;4.00;100.00;99584.06;5110357;28;19951;-62
2023/01/24 10:18:11;;;;;;;;;;;;;;;3.96;100.00;99581.97;5119028;28;19939;-62
2023/01/24 10:20:44;;;;;;;;;;;;;;;3.89;100.00;99586.31;5121841;28;19959;-62
2023/01/24 10:23:13;;;;;;;;;;;;;;;3.96;100.00;99582.75;5119248;28;19949;-62
2023/01/24 10:25:50;;;;;;;;;;;;;;;3.89;100.00;99591.59;5118171;28;19952;-62
2023/01/24 10:28:19;;;;;;;;;;;;;;;3.99;100.00;99592.97;5121111;28;19928;-62
2023/01/24 10:30:48;;;;;;;;;;;;;;;4.10;100.00;99592.56;5103674;28;19996;-62
2023/01/24 10:33:17;;;;;;;;;;;;;;;4.10;100.00;99587.28;5100709;28;19924;-62
2023/01/24 10:35:51;;;;;;;;;;;;;;;4.21;100.00;99586.81;5114232;28;19924;-62
2023/01/24 10:38:18;;;;;;;;;;;;;;;4.11;100.00;99582.81;5121158;28;19999;-62
2023/01/24 10:40:52;;;;;;;;;;;;;;;4.14;100.00;99574.50;5121414;28;19955;-62
2023/01/24 10:43:20;;;;;;;;;;;;;;;4.27;100.00;99575.50;5118270;28;20003;-62
2023/01/24 10:45:50;;;;;;;;;;;;;;;4.30;100.00;99569.84;5118222;28;19928;-62
2023/01/24 10:48:24;;;;;;;;;;;;;;;4.23;100.00;99576.06;5103204;28;19935;-63
2023/01/24 10:50:51;;;;;;;;;;;;;;;4.18;100.00;99575.78;5121567;28;19982;-63
2023/01/24 10:53:23;;;;;;;;;;;;;;;4.17;100.00;99574.97;5120032;28;19924;-63
2023/01/24 10:55:49;;;;;;;;;;;;;;;4.10;100.00;99568.75;5122256;28;19924;-63
2023/01/24 10:58:21;;;;;;;;;;;;;;;4.06;100.00;99574.56;5125166;28;19924;-63
2023/01/24 11:00:55;;;;;;;;;;;;;;;4.06;100.00;99578.06;5125543;28;19935;-63
2023/01/24 11:03:24;;;;;;;;;;;;;;;4.15;100.00;99571.69;5113784;28;19924;-63
2023/01/24 11:05:51;;;;;;;;;;;;;;;4.20;100.00;99569.31;5118243;28;19955;-63
2023/01/24 11:08:19;;;;;;;;;;;;;;;4.27;100.00;99570.22;5124968;28;20698;-63
2023/01/24 11:10:45;;;;;;;;;;;;;;;4.34;100.00;99560.56;5125364;28;19946;-63
2023/01/24 11:13:35;;;;;;;;;;;;;;;4.23;100.00;99562.84;5122709;28;20368;-62
2023/01/24 11:16:03;;;;;;;;;;;;;;;4.29;100.00;99554.19;5079821;28;19919;-63
2023/01/24 11:18:33;;;;;;;;;;;;;;;4.44;100.00;99554.16;5121632;28;19947;-62
2023/01/24 11:21:10;;;;;;;;;;;;;;;4.40;100.00;99552.88;5121874;28;19955;-62
2023/01/24 11:23:37;;;;;;;;;;;;;;;4.45;100.00;99550.53;5125598;28;19927;-62
2023/01/24 11:26:05;;;;;;;;;;;;;;;4.46;100.00;99552.16;5124140;28;19924;-63
2023/01/24 11:28:32;;;;;;;;;;;;;;;4.46;100.00;99542.41;5121646;28;19939;-63
2023/01/24 11:31:00;;;;;;;;;;;;;;;4.39;100.00;99535.41;5121956;28;19955;-63
2023/01/24 11:33:37;;;;;;;;;;;;;;;4.45;100.00;99538.13;5124968;28;19980;-63
2023/01/24 11:36:08;;;;;;;;;;;;;;;4.45;100.00;99539.94;5116277;28;19924;-63
2023/01/24 11:38:37;;;;;;;;;;;;;;;4.45;100.00;99534.66;5124969;28;19955;-63
2023/01/24 11:41:06;;;;;;;;;;;;;;;4.37;100.00;99535.56;5123510;28;19955;-63
2023/01/24 11:43:47;;;;;;;;;;;;;;;4.48;100.00;99536.94;5121398;28;19959;-63
2023/01/24 11:46:31;;;;;;;;;;;;;;;4.27;100.00;99533.19;5121004;28;19924;-63
2023/01/24 11:49:05;;;;;;;;;;;;;;;4.36;100.00;99529.44;5124332;27;20038;-63
2023/01/24 11:51:38;;;;;;;;;;;;;;;4.37;100.00;99530.28;5121295;28;19928;-63
2023/01/24 11:54:16;;;;;;;;;;;;;;;4.51;100.00;99523.34;5122170;28;19924;-63
2023/01/24 11:56:46;;;;;;;;;;;;;;;4.48;100.00;99518.41;5124366;28;19975;-63
2023/01/24 11:59:25;;;;;;;;;;;;;;;4.42;100.00;99532.38;5121965;28;19931;-63
2023/01/24 12:01:54;;;;;;;;;;;;;;;4.35;100.00;99514.59;5120909;28;19935;-62
2023/01/24 12:04:36;;;;;;;;;;;;;;;4.36;100.00;99516.22;5123633;28;19928;-63
2023/01/24 12:07:06;;;;;;;;;;;;;;;4.34;100.00;99512.94;5118122;28;19957;-62
2023/01/24 12:09:35;;;;;;;;;;;;;;;4.41;100.00;99509.56;5120823;28;19924;-62
2023/01/24 12:12:06;;;;;;;;;;;;;;;4.35;100.00;99511.97;5121144;28;19987;-64
2023/01/24 12:14:43;;;;;;;;;;;;;;;4.39;100.00;99509.78;5124042;28;19956;-64
2023/01/24 12:17:16;;;;;;;;;;;;;;;4.30;100.00;99510.88;5122004;28;19949;-63
2023/01/24 12:19:56;;;;;;;;;;;;;;;4.14;100.00;99497.84;5102064;28;20502;-63
2023/01/24 12:22:23;;;;;;;;;;;;;;;4.19;100.00;99506.03;5111984;28;19959;-64
2023/01/24 12:24:53;;;;;;;;;;;;;;;4.22;100.00;99511.78;5102289;28;19935;-62
2023/01/24 12:27:22;;;;;;;;;;;;;;;4.21;100.00;99499.53;5123284;28;19928;-63
2023/01/24 12:29:54;;;;;;;;;;;;;;;4.27;100.00;99504.09;5123766;28;20366;-63
2023/01/24 12:32:23;;;;;;;;;;;;;;;4.18;100.00;99505.19;5120197;28;19924;-63
2023/01/24 12:34:54;;;;;;;;;;;;;;;4.10;100.00;99494.72;5119786;28;20011;-63
2023/01/24 12:37:24;;;;;;;;;;;;;;;4.08;100.00;99502.03;5119623;28;19991;-63
2023/01/24 12:39:54;;;;;;;;;;;;;;;4.15;100.00;99497.63;5119824;28;19932;-62
2023/01/24 12:42:24;;;;;;;;;;;;;;;4.14;100.00;99490.72;5123254;28;19924;-62
2023/01/24 12:44:53;;;;;;;;;;;;;;;4.16;100.00;99491.34;5123059;28;19924;-62
2023/01/24 12:47:31;;;;;;;;;;;;;;;4.09;100.00;99487.78;5119681;28;19928;-62
2023/01/24 12:50:04;;;;;;;;;;;;;;;4.12;100.00;99487.44;5119739;28;20015;-62
2023/01/24 12:52:34;;;;;;;;;;;;;;;4.18;100.00;99494.63;5123419;28;19935;-62
2023/01/24 12:55:02;;;;;;;;;;;;;;;4.18;100.00;99493.81;5122431;28;19942;-62
2023/01/24 12:57:31;;;;;;;;;;;;;;;4.17;100.00;99493.00;5119642;28;19920;-63
2023/01/24 13:00:00;;;;;;;;;;;;;;;4.20;100.00;99490.00;5120043;28;19978;-63
2023/01/24 13:02:47;;;;;;;;;;;;;;;4.26;100.00;99483.97;5123078;28;19924;-63
2023/01/24 13:05:24;;;;;;;;;;;;;;;4.09;100.00;99487.78;5098385;27;19924;-63
2023/01/24 13:07:56;;;;;;;;;;;;;;;4.09;100.00;99482.50;5119380;28;19928;-63
2023/01/24 13:10:28;;;;;;;;;;;;;;;4.14;100.00;99484.63;5111151;28;20043;-63
2023/01/24 13:12:55;;;;;;;;;;;;;;;4.20;100.00;99487.34;5119201;28;19924;-63
2023/01/24 13:15:25;;;;;;;;;;;;;;;4.13;100.00;99478.50;5110761;28;19924;-63
2023/01/24 13:17:57;;;;;;;;;;;;;;;4.18;100.00;99486.69;5119122;28;19962;-63
2023/01/24 13:20:42;;;;;;;;;;;;;;;4.09;100.00;99492.25;5111018;28;19924;-63
2023/01/24 13:23:25;;;;;;;;;;;;;;;4.07;100.00;99505.69;5120227;28;19956;-63
2023/01/24 13:26:04;;;;;;;;;;;;;;;4.09;100.00;99505.47;5122741;28;19924;-63
2023/01/24 13:28:33;;;;;;;;;;;;;;;4.15;100.00;99518.78;5112046;28;19959;-63
2023/01/24 13:31:06;;;;;;;;;;;;;;;4.20;100.00;99519.09;5119825;28;19924;-63
2023/01/24 13:33:37;;;;;;;;;;;;;;;4.26;100.00;99514.88;5122672;28;19963;-63